Airfield :
LOGIN :

Register | Disclaimer

   EN    FR    IT 

 










Legend :    VFR   Marginal VFR   IFR   Intensive IFR   Very Intensive IFR
Visi :
Ceiling :
>= 8 km
>= 3000ft
5 to 8 km
1000 to 3000 ft
1500m to 5 km
500 to 1000 ft
800 to 1500m
200 to 500 ft
< 800m
< 200 ft
Symbols :   Thunderstorms  Fog  Heavy snow  Heavy precipitations  Wind > 20 kt
SIGMETs :     Misc.  Thunderstorms  Icing  Turbulence  Mountain Waves  Volcanic Ashes






- Airport Elevation : 14 ft
- IATA code : BRE


EDDW - Bremen Neuenland

CURRENT METAR :
  • 301550Z 06012KT CAVOK 20/05 Q1023 NOSIG

EXPIRED METARs :
  • 301520Z 05011KT 360V110 CAVOK 21/04 Q1024 NOSIG
  • 301450Z 06011KT 010V100 CAVOK 22/05 Q1024 NOSIG
  • 301420Z 06009KT 020V140 CAVOK 22/05 Q1024 NOSIG
  • 301350Z 06011G21KT 030V110 CAVOK 21/05 Q1024 NOSIG
  • 301320Z 07010KT 020V100 CAVOK 22/06 Q1024 NOSIG

TAF TAF EDDW
Valid from the 30 at 12:00 until the 31 at 12:00 UTC


301100Z 3012/3112 05009KT CAVOK
BECMG 3019/3021 05004KT
BECMG 3106/3108 05011KT
PROB30
TEMPO 3110/3112 06015G25KT



MET'MAP, your aeronautical weather chart ! - Copyright ORBIFLY December 2007 - Disclaimer

ORBIFLY MET'MAP TEAM :

Programming & Development : Alexandra Zaïnal
Concept & original design : Baudouin d'Aumeries
Assistance for programming : Marc-Olivier Méhu
Technical & hardware support : Manuel Goepfert

Contact : metmap@orbifly.com




SOURCES & CREDITS :

   NOAA